Time;durP1;ratioP1;P1;durP2;ratioP2;P2;SDS_P1;SDS_P2;PMS_P1;PMS_P2;Temp;Humidity;BMP_temperature;BMP_pressure;BME280_temperature;BME280_humidity;BME280_pressure;Samples;Min_cycle;Max_cycle;Signal;HPM_P1;HPM_P2
2021/01/21 09:46:41;;;;;;;2.38;0.80;;;20.60;38.80;;;;;;5111958;27;20400;-41
2021/01/21 09:49:07;;;;;;;0.70;0.70;;;20.60;39.30;;;;;;5111422;28;20111;-40
2021/01/21 09:51:32;;;;;;;0.82;0.82;;;20.60;38.90;;;;;;5031166;27;20136;-43
2021/01/21 09:53:58;;;;;;;0.82;0.63;;;20.70;39.40;;;;;;5050348;28;20021;-41
2021/01/21 09:56:24;;;;;;;6.07;0.80;;;20.70;40.10;;;;;;5050380;28;20025;-40
2021/01/21 09:58:51;;;;;;;1.40;1.30;;;20.70;39.10;;;;;;5050685;28;20052;-44
2021/01/21 10:01:17;;;;;;;0.50;0.50;;;20.80;39.30;;;;;;5048607;28;20494;-37
2021/01/21 10:03:43;;;;;;;2.95;0.63;;;20.80;39.60;;;;;;5048797;28;20029;-48
2021/01/21 10:06:10;;;;;;;0.60;0.60;;;20.80;39.70;;;;;;5049003;28;20037;-46
2021/01/21 10:08:38;;;;;;;7.47;0.82;;;20.80;39.20;;;;;;5049080;28;20025;-35
2021/01/21 10:11:05;;;;;;;3.25;1.00;;;20.50;40.00;;;;;;5049135;28;20029;-44
2021/01/21 10:13:31;;;;;;;0.55;0.55;;;20.70;40.10;;;;;;5048797;28;20025;-47
2021/01/21 10:15:56;;;;;;;0.50;0.50;;;20.80;39.80;;;;;;5048706;28;20026;-47
2021/01/21 10:18:22;;;;;;;0.60;0.60;;;20.80;39.60;;;;;;5048667;28;20029;-42
2021/01/21 10:20:48;;;;;;;2.28;0.40;;;20.80;39.30;;;;;;5048624;28;20040;-39
2021/01/21 10:23:14;;;;;;;0.65;0.45;;;20.80;39.20;;;;;;5040772;28;20033;-42
2021/01/21 10:25:40;;;;;;;2.15;0.50;;;20.80;39.60;;;;;;5028639;28;20038;-38
2021/01/21 10:28:06;;;;;;;0.95;0.77;;;20.80;39.80;;;;;;5029117;28;20032;-39
2021/01/21 10:30:32;;;;;;;4.25;0.70;;;20.90;39.90;;;;;;5029217;28;20033;-37
2021/01/21 10:32:58;;;;;;;6.60;0.80;;;20.90;39.60;;;;;;5029035;28;20100;-40
2021/01/21 10:35:24;;;;;;;3.17;0.60;;;20.90;39.50;;;;;;5030095;28;20026;-34
2021/01/21 10:37:49;;;;;;;1.25;0.63;;;20.90;40.00;;;;;;5029493;28;20029;-46
2021/01/21 10:40:16;;;;;;;0.50;0.50;;;21.00;40.00;;;;;;5030079;28;20034;-44
2021/01/21 10:42:42;;;;;;;3.67;0.50;;;21.00;39.30;;;;;;5029629;28;20049;-45
2021/01/21 10:45:09;;;;;;;1.95;0.50;;;21.00;39.30;;;;;;5029228;28;20060;-34
2021/01/21 10:47:35;;;;;;;1.52;0.55;;;20.90;39.30;;;;;;5029507;28;20026;-40
2021/01/21 10:50:00;;;;;;;0.60;0.60;;;20.90;39.50;;;;;;5029869;28;20056;-33
2021/01/21 10:52:26;;;;;;;1.77;0.60;;;21.00;40.00;;;;;;5029787;28;20079;-33
2021/01/21 10:54:52;;;;;;;2.67;0.77;;;21.00;40.50;;;;;;5029375;28;20438;-32
2021/01/21 10:57:18;;;;;;;1.65;0.50;;;21.10;39.70;;;;;;5020492;28;20034;-33
2021/01/21 10:59:44;;;;;;;0.63;0.60;;;21.10;39.40;;;;;;5015700;28;20030;-45
2021/01/21 11:02:10;;;;;;;6.22;1.60;;;21.10;39.30;;;;;;5016322;28;20495;-44
2021/01/21 11:04:36;;;;;;;0.70;0.70;;;21.10;39.50;;;;;;5015945;28;20495;-38
2021/01/21 11:07:02;;;;;;;1.90;0.60;;;21.10;39.30;;;;;;5015716;28;20032;-38
2021/01/21 11:09:35;;;;;;;3.25;0.63;;;21.10;39.30;;;;;;5015551;28;20040;-37
2021/01/21 11:12:03;;;;;;;1.25;0.65;;;21.20;39.40;;;;;;5012722;28;20056;-37
2021/01/21 11:14:28;;;;;;;2.83;0.68;;;21.20;39.30;;;;;;5007124;28;20077;-34
2021/01/21 11:16:54;;;;;;;1.88;0.60;;;21.20;39.70;;;;;;5015710;28;20022;-39
2021/01/21 11:19:20;;;;;;;2.08;0.50;;;21.20;39.30;;;;;;5014874;28;20463;-36
2021/01/21 11:21:46;;;;;;;3.85;0.73;;;21.20;39.40;;;;;;5015469;28;20025;-36
2021/01/21 11:24:12;;;;;;;1.30;0.60;;;21.20;39.50;;;;;;5015664;28;20026;-50
2021/01/21 11:26:38;;;;;;;2.67;0.70;;;21.30;39.30;;;;;;5015909;28;20506;-40
2021/01/21 11:29:04;;;;;;;3.30;0.90;;;21.20;38.90;;;;;;5015678;28;20056;-39
2021/01/21 11:31:29;;;;;;;1.73;0.65;;;21.20;38.80;;;;;;5015278;28;20483;-36
2021/01/21 11:33:55;;;;;;;4.97;1.85;;;21.20;38.70;;;;;;5015188;28;20030;-35
2021/01/21 11:36:21;;;;;;;3.15;0.65;;;21.20;39.30;;;;;;5008775;28;20038;-47
2021/01/21 11:38:47;;;;;;;3.30;0.70;;;21.20;38.90;;;;;;5002429;28;20463;-45
2021/01/21 11:41:13;;;;;;;0.82;0.77;;;21.30;39.20;;;;;;5007230;28;20087;-43
2021/01/21 11:43:39;;;;;;;1.15;0.60;;;21.30;39.60;;;;;;5003858;28;20570;-33
2021/01/21 11:46:05;;;;;;;5.15;1.00;;;21.40;40.20;;;;;;5003291;28;20027;-40
2021/01/21 11:48:30;;;;;;;1.90;0.60;;;21.40;40.00;;;;;;5011266;28;20152;-43
2021/01/21 11:50:56;;;;;;;2.25;0.80;;;21.40;40.10;;;;;;5012941;28;20076;-42
2021/01/21 11:53:22;;;;;;;4.18;0.73;;;21.40;39.70;;;;;;5006610;28;20037;-43
2021/01/21 11:55:48;;;;;;;4.70;0.60;;;21.50;40.10;;;;;;5013924;28;20553;-42
2021/01/21 11:58:14;;;;;;;2.78;1.10;;;21.50;40.10;;;;;;5014164;28;20037;-35
2021/01/21 12:00:40;;;;;;;5.85;1.40;;;21.50;40.10;;;;;;5014358;28;20116;-36
2021/01/21 12:03:06;;;;;;;4.72;2.08;;;21.60;40.00;;;;;;5014081;28;20026;-34
2021/01/21 12:05:32;;;;;;;5.35;3.08;;;21.50;39.90;;;;;;5013769;28;20113;-45
2021/01/21 12:07:58;;;;;;;9.20;5.07;;;21.50;39.90;;;;;;5014043;28;20026;-45
2021/01/21 12:10:24;;;;;;;5.80;5.20;;;21.50;40.30;;;;;;5014429;28;20026;-46
2021/01/21 12:12:50;;;;;;;9.82;6.00;;;21.50;40.90;;;;;;5014071;28;20034;-48
2021/01/21 12:15:16;;;;;;;6.45;5.60;;;21.50;40.80;;;;;;5013557;28;20030;-48
2021/01/21 12:17:43;;;;;;;9.18;6.32;;;21.50;40.40;;;;;;5013618;28;20041;-47
2021/01/21 12:20:10;;;;;;;6.05;5.32;;;21.50;40.20;;;;;;5013488;28;20030;-47
2021/01/21 12:22:36;;;;;;;7.88;6.30;;;21.50;40.30;;;;;;5013990;28;20033;-48
2021/01/21 12:25:02;;;;;;;6.32;5.38;;;21.50;40.60;;;;;;5013805;28;20041;-46
2021/01/21 12:27:28;;;;;;;5.85;5.25;;;21.50;40.80;;;;;;5014450;28;20036;-47
2021/01/21 12:29:54;;;;;;;7.00;5.05;;;21.50;40.70;;;;;;5014131;28;20030;-49
2021/01/21 12:32:20;;;;;;;5.93;5.32;;;21.50;41.10;;;;;;5013469;28;20394;-50
2021/01/21 12:34:47;;;;;;;6.95;4.97;;;21.50;41.10;;;;;;5013149;28;20084;-48
2021/01/21 12:37:13;;;;;;;7.60;4.82;;;21.50;40.90;;;;;;5013074;28;20033;-49
2021/01/21 12:39:39;;;;;;;4.53;4.13;;;21.50;41.00;;;;;;5013290;28;20529;-51
2021/01/21 12:42:05;;;;;;;6.10;4.35;;;21.50;40.90;;;;;;5013558;28;20034;-48
2021/01/21 12:44:31;;;;;;;7.60;4.47;;;21.50;40.90;;;;;;5012120;28;20057;-50
2021/01/21 12:46:57;;;;;;;4.72;3.58;;;21.50;40.80;;;;;;4993746;28;20570;-52
2021/01/21 12:49:22;;;;;;;6.80;3.97;;;21.50;40.80;;;;;;4993758;28;20494;-45
2021/01/21 12:51:48;;;;;;;12.88;4.28;;;21.50;40.80;;;;;;4993457;28;20491;-42
2021/01/21 12:54:14;;;;;;;4.60;3.47;;;21.60;41.00;;;;;;5004604;28;20026;-51
2021/01/21 12:56:40;;;;;;;5.20;3.38;;;21.60;41.00;;;;;;5008086;28;20483;-51
2021/01/21 12:59:06;;;;;;;7.63;3.70;;;21.60;40.50;;;;;;5020791;28;20037;-50
2021/01/21 13:01:32;;;;;;;2.95;2.50;;;21.70;40.80;;;;;;5013162;28;20499;-45
2021/01/21 13:03:58;;;;;;;4.40;2.85;;;21.70;40.50;;;;;;4992890;28;20038;-41
2021/01/21 13:06:24;;;;;;;5.82;2.90;;;21.70;40.60;;;;;;5002171;28;20030;-49
2021/01/21 13:08:50;;;;;;;3.60;3.15;;;21.70;40.50;;;;;;5012693;28;20036;-43
2021/01/21 13:11:16;;;;;;;4.65;2.70;;;21.70;40.50;;;;;;5012358;28;20025;-48
2021/01/21 13:13:42;;;;;;;6.53;3.00;;;21.70;40.00;;;;;;5012606;28;20157;-42
2021/01/21 13:16:08;;;;;;;7.13;2.80;;;21.70;40.20;;;;;;5012898;28;20109;-35
2021/01/21 13:18:34;;;;;;;3.67;2.67;;;21.70;40.00;;;;;;5012912;28;20150;-36
2021/01/21 13:21:00;;;;;;;4.47;2.83;;;21.80;40.70;;;;;;5012483;28;20506;-40
2021/01/21 13:23:26;;;;;;;4.97;2.80;;;21.80;40.70;;;;;;5012976;28;20057;-48
2021/01/21 13:25:52;;;;;;;3.83;2.15;;;21.80;40.30;;;;;;5012463;28;20057;-47
2021/01/21 13:28:18;;;;;;;4.68;2.38;;;21.80;40.40;;;;;;5012700;28;20037;-49
2021/01/21 13:30:43;;;;;;;7.03;2.15;;;21.80;40.20;;;;;;5012941;28;20030;-46
2021/01/21 13:33:09;;;;;;;5.80;2.80;;;21.80;40.30;;;;;;5012630;28;20026;-41
2021/01/21 13:35:35;;;;;;;3.58;2.60;;;21.80;40.40;;;;;;5012252;28;20037;-42
2021/01/21 13:38:01;;;;;;;2.83;2.05;;;21.80;40.40;;;;;;5012279;28;20380;-38
2021/01/21 13:40:27;;;;;;;4.40;2.33;;;21.80;40.20;;;;;;5012209;28;20457;-34
2021/01/21 13:42:57;;;;;;;3.28;2.83;;;21.80;40.30;;;;;;5012051;28;20030;-51
2021/01/21 13:45:24;;;;;;;2.90;2.38;;;21.90;40.70;;;;;;5012047;28;20054;-43
2021/01/21 13:47:50;;;;;;;3.63;2.30;;;21.90;40.40;;;;;;5012241;28;20514;-39
2021/01/21 13:50:16;;;;;;;2.17;1.98;;;21.90;40.20;;;;;;5012345;28;20022;-44
2021/01/21 13:52:42;;;;;;;3.28;2.20;;;21.90;40.40;;;;;;5012111;28;20026;-37
2021/01/21 13:55:08;;;;;;;5.35;2.25;;;21.90;40.30;;;;;;5012160;28;20034;-45
2021/01/21 13:57:33;;;;;;;5.85;2.10;;;21.90;40.40;;;;;;5012002;28;20034;-38
2021/01/21 13:59:59;;;;;;;2.88;2.00;;;21.90;40.00;;;;;;5012533;28;20022;-48
2021/01/21 14:02:25;;;;;;;3.30;2.28;;;21.90;40.10;;;;;;5012365;28;20033;-36
2021/01/21 14:04:51;;;;;;;4.68;2.30;;;21.80;39.90;;;;;;5012308;28;20495;-36
2021/01/21 14:07:17;;;;;;;4.82;2.28;;;21.90;40.10;;;;;;5012344;28;20033;-46
2021/01/21 14:09:43;;;;;;;4.40;2.00;;;21.80;39.90;;;;;;5011971;28;20025;-43
2021/01/21 14:12:09;;;;;;;2.95;2.38;;;21.80;40.00;;;;;;5012321;28;20026;-41
2021/01/21 14:14:35;;;;;;;2.47;2.28;;;21.80;39.90;;;;;;5012284;28;20021;-35
2021/01/21 14:17:02;;;;;;;2.28;2.08;;;21.80;39.90;;;;;;5012096;28;20026;-35
2021/01/21 14:19:28;;;;;;;4.05;1.73;;;21.80;39.90;;;;;;5011838;28;20064;-38
2021/01/21 14:21:54;;;;;;;3.97;1.80;;;21.80;39.90;;;;;;5011609;28;20030;-37
2021/01/21 14:24:19;;;;;;;4.20;2.00;;;21.80;39.80;;;;;;5011420;28;20037;-36
2021/01/21 14:26:45;;;;;;;2.08;1.85;;;21.90;39.90;;;;;;5012122;28;20116;-37
2021/01/21 14:29:11;;;;;;;2.45;1.98;;;21.80;39.80;;;;;;5011930;28;20506;-38
2021/01/21 14:31:37;;;;;;;2.00;1.80;;;21.80;39.90;;;;;;5012818;28;20044;-40
2021/01/21 14:34:03;;;;;;;2.92;1.80;;;21.80;39.90;;;;;;5015178;28;20486;-44
2021/01/21 14:36:29;;;;;;;2.10;1.90;;;21.80;39.90;;;;;;5015309;28;20057;-48
2021/01/21 14:38:55;;;;;;;1.88;1.70;;;21.80;40.00;;;;;;5015617;28;20034;-35
2021/01/21 14:41:21;;;;;;;2.10;1.90;;;21.80;39.90;;;;;;5015150;28;20088;-45
2021/01/21 14:43:47;;;;;;;4.43;1.70;;;21.80;39.80;;;;;;5015705;28;20029;-45
2021/01/21 14:46:15;;;;;;;2.38;1.83;;;21.80;39.80;;;;;;5015403;28;20092;-35
2021/01/21 14:48:41;;;;;;;3.38;1.90;;;21.80;40.00;;;;;;5015833;28;20026;-36
2021/01/21 14:51:07;;;;;;;2.92;2.33;;;21.80;40.10;;;;;;5015824;28;20034;-33
2021/01/21 14:53:33;;;;;;;2.67;1.48;;;21.70;40.00;;;;;;5015968;28;20053;-40
2021/01/21 14:55:59;;;;;;;2.70;1.98;;;21.70;40.00;;;;;;5015604;28;20061;-42
2021/01/21 14:58:25;;;;;;;2.50;1.58;;;21.80;40.20;;;;;;5018002;28;20030;-40
2021/01/21 15:00:51;;;;;;;4.75;1.73;;;21.70;40.10;;;;;;5013928;28;20059;-35
2021/01/21 15:03:16;;;;;;;5.32;1.65;;;21.80;40.30;;;;;;5015338;28;20137;-38
2021/01/21 15:05:42;;;;;;;4.07;2.30;;;21.80;40.20;;;;;;5014987;28;20026;-45
2021/01/21 15:08:08;;;;;;;2.10;1.90;;;21.80;40.20;;;;;;5014959;28;20021;-46
2021/01/21 15:10:34;;;;;;;2.08;1.88;;;21.70;40.00;;;;;;5014809;28;20049;-50
2021/01/21 15:13:00;;;;;;;3.80;1.80;;;21.70;40.10;;;;;;5014270;28;20021;-48
2021/01/21 15:15:26;;;;;;;2.40;1.70;;;21.70;40.20;;;;;;5015196;28;20115;-45
2021/01/21 15:17:51;;;;;;;3.08;1.65;;;21.70;40.10;;;;;;5015180;28;20665;-46
2021/01/21 15:20:17;;;;;;;2.20;1.42;;;21.70;40.00;;;;;;5014598;28;20033;-47
2021/01/21 15:22:43;;;;;;;3.60;1.42;;;21.70;40.20;;;;;;5014820;28;20471;-46
2021/01/21 15:25:10;;;;;;;2.25;1.48;;;21.70;40.20;;;;;;5014955;28;20033;-44
2021/01/21 15:27:36;;;;;;;69.78;6.93;;;21.60;40.00;;;;;;5014869;28;20029;-44
2021/01/21 15:30:02;;;;;;;7.60;1.95;;;21.60;40.40;;;;;;5014738;28;20034;-35
2021/01/21 15:32:28;;;;;;;5.38;1.80;;;21.60;40.30;;;;;;5014272;28;20503;-35
2021/01/21 15:34:54;;;;;;;3.92;1.75;;;21.60;40.10;;;;;;5014136;28;20030;-35
2021/01/21 15:37:20;;;;;;;2.72;2.03;;;21.60;40.10;;;;;;5013980;28;20100;-35
2021/01/21 15:39:46;;;;;;;2.13;1.80;;;21.60;40.40;;;;;;5014593;28;20025;-35
2021/01/21 15:42:12;;;;;;;4.13;1.40;;;21.60;40.20;;;;;;5014196;28;20044;-35
2021/01/21 15:44:39;;;;;;;1.58;1.48;;;21.60;40.30;;;;;;5013873;28;20039;-41
2021/01/21 15:47:05;;;;;;;3.03;1.52;;;21.50;40.20;;;;;;5014137;28;20029;-39
2021/01/21 15:49:31;;;;;;;2.25;1.67;;;21.50;40.30;;;;;;5014509;28;20091;-39
2021/01/21 15:51:57;;;;;;;1.60;1.45;;;21.50;40.20;;;;;;5014574;28;20026;-35
2021/01/21 15:54:26;;;;;;;5.63;1.77;;;21.50;40.70;;;;;;5014138;28;20022;-38
2021/01/21 15:56:53;;;;;;;2.40;1.75;;;21.50;40.40;;;;;;5008898;28;20030;-37
2021/01/21 15:59:20;;;;;;;2.25;1.55;;;21.50;40.40;;;;;;4994524;28;20026;-34
2021/01/21 16:01:47;;;;;;;2.20;1.60;;;21.50;40.50;;;;;;4994251;28;20058;-36
2021/01/21 16:04:13;;;;;;;1.60;1.50;;;21.50;40.40;;;;;;4994589;28;20491;-35
2021/01/21 16:06:39;;;;;;;3.20;2.08;;;21.40;40.10;;;;;;4994058;28;20077;-36
2021/01/21 16:09:05;;;;;;;1.90;1.30;;;21.50;40.50;;;;;;4994582;28;20019;-35
2021/01/21 16:11:31;;;;;;;4.38;1.42;;;21.50;40.50;;;;;;4994312;28;20087;-41
2021/01/21 16:13:56;;;;;;;1.67;1.58;;;21.50;40.50;;;;;;4994499;28;20474;-36
2021/01/21 16:16:22;;;;;;;4.00;1.67;;;21.50;40.80;;;;;;4993898;28;20030;-46
2021/01/21 16:18:48;;;;;;;2.10;1.70;;;21.40;40.60;;;;;;4994251;28;20034;-39
2021/01/21 16:21:14;;;;;;;3.13;1.60;;;21.50;40.80;;;;;;5013494;28;20480;-33
2021/01/21 16:23:40;;;;;;;3.45;1.75;;;21.40;39.80;;;;;;5013592;28;20398;-34
2021/01/21 16:26:12;;;;;;;1.83;1.50;;;21.30;39.80;;;;;;5009828;28;20025;-36
2021/01/21 16:28:41;;;;;;;3.00;1.50;;;21.30;40.50;;;;;;4993881;28;20030;-37
2021/01/21 16:31:10;;;;;;;2.35;1.70;;;21.20;40.60;;;;;;4994263;28;20026;-40
2021/01/21 16:33:36;;;;;;;4.88;1.63;;;21.20;40.60;;;;;;4994119;28;20088;-40
